sensor_id;sensor_type;location;lat;lon;timestamp;P1;durP1;ratioP1;P2;durP2;ratioP2
44987;SDS011;35735;52.226;21.254;2023-05-16T00:02:57;5.30;;;3.42;;
44987;SDS011;35735;52.226;21.254;2023-05-16T00:07:57;4.75;;;3.60;;
44987;SDS011;35735;52.226;21.254;2023-05-16T00:18:26;4.40;;;3.65;;
44987;SDS011;35735;52.226;21.254;2023-05-16T00:23:27;4.30;;;3.47;;
44987;SDS011;35735;52.226;21.254;2023-05-16T00:28:28;4.12;;;3.72;;
44987;SDS011;35735;52.226;21.254;2023-05-16T00:33:28;4.30;;;3.87;;
44987;SDS011;35735;52.226;21.254;2023-05-16T00:38:29;4.95;;;3.90;;
44987;SDS011;35735;52.226;21.254;2023-05-16T00:43:29;4.93;;;3.83;;
44987;SDS011;35735;52.226;21.254;2023-05-16T00:48:30;4.72;;;4.07;;
44987;SDS011;35735;52.226;21.254;2023-05-16T00:53:31;6.40;;;4.20;;
44987;SDS011;35735;52.226;21.254;2023-05-16T00:58:32;5.53;;;4.07;;
44987;SDS011;35735;52.226;21.254;2023-05-16T01:03:33;5.05;;;4.55;;
44987;SDS011;35735;52.226;21.254;2023-05-16T01:08:33;5.55;;;4.25;;
44987;SDS011;35735;52.226;21.254;2023-05-16T01:30:11;5.32;;;4.20;;
44987;SDS011;35735;52.226;21.254;2023-05-16T01:35:15;5.20;;;4.70;;
44987;SDS011;35735;52.226;21.254;2023-05-16T01:40:40;5.00;;;4.50;;
44987;SDS011;35735;52.226;21.254;2023-05-16T01:46:02;5.25;;;4.20;;
44987;SDS011;35735;52.226;21.254;2023-05-16T01:51:09;5.18;;;4.68;;
44987;SDS011;35735;52.226;21.254;2023-05-16T01:56:13;8.00;;;4.60;;
44987;SDS011;35735;52.226;21.254;2023-05-16T02:01:15;5.25;;;4.75;;
44987;SDS011;35735;52.226;21.254;2023-05-16T02:06:16;5.68;;;5.10;;
44987;SDS011;35735;52.226;21.254;2023-05-16T02:11:16;5.60;;;4.40;;
44987;SDS011;35735;52.226;21.254;2023-05-16T02:16:17;6.00;;;5.40;;
44987;SDS011;35735;52.226;21.254;2023-05-16T02:21:17;6.53;;;5.22;;
44987;SDS011;35735;52.226;21.254;2023-05-16T02:26:18;5.87;;;5.28;;
44987;SDS011;35735;52.226;21.254;2023-05-16T02:31:25;7.60;;;5.32;;
44987;SDS011;35735;52.226;21.254;2023-05-16T02:36:30;6.37;;;5.22;;
44987;SDS011;35735;52.226;21.254;2023-05-16T02:41:30;5.50;;;5.00;;
44987;SDS011;35735;52.226;21.254;2023-05-16T02:46:32;7.00;;;5.45;;
44987;SDS011;35735;52.226;21.254;2023-05-16T02:51:33;7.55;;;5.70;;
44987;SDS011;35735;52.226;21.254;2023-05-16T02:56:34;6.50;;;5.57;;
44987;SDS011;35735;52.226;21.254;2023-05-16T03:01:35;7.03;;;5.97;;
44987;SDS011;35735;52.226;21.254;2023-05-16T03:06:35;6.97;;;5.15;;
44987;SDS011;35735;52.226;21.254;2023-05-16T03:11:36;6.28;;;5.70;;
44987;SDS011;35735;52.226;21.254;2023-05-16T03:16:37;6.68;;;5.80;;
44987;SDS011;35735;52.226;21.254;2023-05-16T03:21:38;6.50;;;5.80;;
44987;SDS011;35735;52.226;21.254;2023-05-16T03:26:38;6.12;;;5.35;;
44987;SDS011;35735;52.226;21.254;2023-05-16T03:31:39;6.72;;;5.57;;
44987;SDS011;35735;52.226;21.254;2023-05-16T03:36:39;6.12;;;5.53;;
44987;SDS011;35735;52.226;21.254;2023-05-16T03:41:40;10.00;;;5.55;;
44987;SDS011;35735;52.226;21.254;2023-05-16T03:46:41;8.10;;;6.00;;
44987;SDS011;35735;52.226;21.254;2023-05-16T03:51:41;5.60;;;5.10;;
44987;SDS011;35735;52.226;21.254;2023-05-16T03:56:42;6.20;;;5.30;;
44987;SDS011;35735;52.226;21.254;2023-05-16T04:01:42;5.82;;;5.22;;
44987;SDS011;35735;52.226;21.254;2023-05-16T04:06:43;6.22;;;5.62;;
44987;SDS011;35735;52.226;21.254;2023-05-16T04:11:44;6.18;;;5.57;;
44987;SDS011;35735;52.226;21.254;2023-05-16T04:16:44;6.32;;;5.50;;
44987;SDS011;35735;52.226;21.254;2023-05-16T04:21:45;7.03;;;6.32;;
44987;SDS011;35735;52.226;21.254;2023-05-16T04:26:45;8.20;;;6.07;;
44987;SDS011;35735;52.226;21.254;2023-05-16T04:31:46;7.07;;;5.47;;
44987;SDS011;35735;52.226;21.254;2023-05-16T04:36:47;7.00;;;5.57;;
44987;SDS011;35735;52.226;21.254;2023-05-16T04:41:47;5.57;;;5.00;;
44987;SDS011;35735;52.226;21.254;2023-05-16T04:46:48;5.60;;;5.10;;
44987;SDS011;35735;52.226;21.254;2023-05-16T04:51:48;5.10;;;4.60;;
44987;SDS011;35735;52.226;21.254;2023-05-16T04:56:49;6.40;;;4.43;;
44987;SDS011;35735;52.226;21.254;2023-05-16T05:01:49;4.87;;;4.30;;
44987;SDS011;35735;52.226;21.254;2023-05-16T05:06:50;4.87;;;4.37;;
44987;SDS011;35735;52.226;21.254;2023-05-16T05:11:51;5.85;;;4.50;;
44987;SDS011;35735;52.226;21.254;2023-05-16T05:16:51;5.35;;;4.28;;
44987;SDS011;35735;52.226;21.254;2023-05-16T05:21:52;5.97;;;4.40;;
44987;SDS011;35735;52.226;21.254;2023-05-16T05:26:52;7.68;;;4.53;;
44987;SDS011;35735;52.226;21.254;2023-05-16T05:31:53;6.25;;;4.87;;
44987;SDS011;35735;52.226;21.254;2023-05-16T05:36:53;6.95;;;4.65;;
44987;SDS011;35735;52.226;21.254;2023-05-16T05:41:54;6.40;;;4.47;;
44987;SDS011;35735;52.226;21.254;2023-05-16T05:46:55;6.03;;;4.55;;
44987;SDS011;35735;52.226;21.254;2023-05-16T05:51:56;5.90;;;4.80;;
44987;SDS011;35735;52.226;21.254;2023-05-16T05:56:57;7.62;;;4.55;;
44987;SDS011;35735;52.226;21.254;2023-05-16T06:01:57;6.35;;;4.97;;
44987;SDS011;35735;52.226;21.254;2023-05-16T06:06:58;6.10;;;5.30;;
44987;SDS011;35735;52.226;21.254;2023-05-16T06:11:58;5.32;;;4.78;;
44987;SDS011;35735;52.226;21.254;2023-05-16T06:16:59;7.00;;;5.37;;
44987;SDS011;35735;52.226;21.254;2023-05-16T06:21:59;7.93;;;4.62;;
44987;SDS011;35735;52.226;21.254;2023-05-16T06:27:00;9.18;;;5.20;;
44987;SDS011;35735;52.226;21.254;2023-05-16T06:32:00;6.65;;;5.18;;
44987;SDS011;35735;52.226;21.254;2023-05-16T06:37:01;8.38;;;6.18;;
44987;SDS011;35735;52.226;21.254;2023-05-16T06:42:01;7.35;;;5.47;;
44987;SDS011;35735;52.226;21.254;2023-05-16T06:47:03;7.40;;;5.40;;
44987;SDS011;35735;52.226;21.254;2023-05-16T06:52:03;6.43;;;5.15;;
44987;SDS011;35735;52.226;21.254;2023-05-16T06:57:04;5.75;;;5.20;;
44987;SDS011;35735;52.226;21.254;2023-05-16T07:02:05;8.18;;;5.30;;
44987;SDS011;35735;52.226;21.254;2023-05-16T07:07:05;7.57;;;5.57;;
44987;SDS011;35735;52.226;21.254;2023-05-16T07:12:06;9.02;;;5.70;;
44987;SDS011;35735;52.226;21.254;2023-05-16T07:17:07;7.05;;;5.53;;
44987;SDS011;35735;52.226;21.254;2023-05-16T07:22:07;7.07;;;6.37;;
44987;SDS011;35735;52.226;21.254;2023-05-16T07:27:08;8.68;;;6.12;;
44987;SDS011;35735;52.226;21.254;2023-05-16T07:32:08;6.40;;;5.65;;
44987;SDS011;35735;52.226;21.254;2023-05-16T07:37:09;8.48;;;6.10;;
44987;SDS011;35735;52.226;21.254;2023-05-16T07:42:10;9.65;;;6.40;;
44987;SDS011;35735;52.226;21.254;2023-05-16T07:47:10;11.02;;;5.90;;
44987;SDS011;35735;52.226;21.254;2023-05-16T07:52:11;5.55;;;5.03;;
44987;SDS011;35735;52.226;21.254;2023-05-16T07:57:12;4.47;;;4.07;;
44987;SDS011;35735;52.226;21.254;2023-05-16T08:02:17;4.40;;;4.00;;
44987;SDS011;35735;52.226;21.254;2023-05-16T08:07:17;4.70;;;3.90;;
44987;SDS011;35735;52.226;21.254;2023-05-16T08:12:18;7.40;;;4.25;;
44987;SDS011;35735;52.226;21.254;2023-05-16T08:17:18;4.57;;;3.67;;
44987;SDS011;35735;52.226;21.254;2023-05-16T08:22:19;4.85;;;3.20;;
44987;SDS011;35735;52.226;21.254;2023-05-16T08:27:19;4.75;;;3.28;;
44987;SDS011;35735;52.226;21.254;2023-05-16T08:32:20;4.95;;;3.00;;
44987;SDS011;35735;52.226;21.254;2023-05-16T08:37:21;3.70;;;2.97;;
44987;SDS011;35735;52.226;21.254;2023-05-16T08:42:22;3.47;;;2.87;;
44987;SDS011;35735;52.226;21.254;2023-05-16T08:47:22;4.03;;;3.10;;
44987;SDS011;35735;52.226;21.254;2023-05-16T08:52:26;4.37;;;2.83;;
44987;SDS011;35735;52.226;21.254;2023-05-16T08:57:27;5.60;;;2.87;;
44987;SDS011;35735;52.226;21.254;2023-05-16T09:02:28;2.55;;;2.35;;
44987;SDS011;35735;52.226;21.254;2023-05-16T09:07:29;4.68;;;2.30;;
44987;SDS011;35735;52.226;21.254;2023-05-16T09:12:30;2.70;;;2.50;;
44987;SDS011;35735;52.226;21.254;2023-05-16T09:17:37;3.00;;;2.50;;
44987;SDS011;35735;52.226;21.254;2023-05-16T09:22:49;4.40;;;2.90;;
44987;SDS011;35735;52.226;21.254;2023-05-16T09:27:55;4.85;;;2.60;;
44987;SDS011;35735;52.226;21.254;2023-05-16T09:32:57;4.00;;;2.45;;
44987;SDS011;35735;52.226;21.254;2023-05-16T09:37:58;5.70;;;2.30;;
44987;SDS011;35735;52.226;21.254;2023-05-16T09:43:05;3.62;;;2.00;;
44987;SDS011;35735;52.226;21.254;2023-05-16T09:48:07;2.97;;;2.47;;
44987;SDS011;35735;52.226;21.254;2023-05-16T09:53:10;4.57;;;2.60;;
44987;SDS011;35735;52.226;21.254;2023-05-16T09:58:15;2.83;;;2.50;;
44987;SDS011;35735;52.226;21.254;2023-05-16T10:03:16;2.87;;;2.15;;
44987;SDS011;35735;52.226;21.254;2023-05-16T10:08:18;6.78;;;2.80;;
44987;SDS011;35735;52.226;21.254;2023-05-16T10:13:21;5.18;;;2.42;;
44987;SDS011;35735;52.226;21.254;2023-05-16T10:18:30;2.55;;;2.30;;
44987;SDS011;35735;52.226;21.254;2023-05-16T10:23:31;2.50;;;2.10;;
44987;SDS011;35735;52.226;21.254;2023-05-16T10:28:32;2.53;;;2.00;;
44987;SDS011;35735;52.226;21.254;2023-05-16T10:33:38;3.35;;;2.20;;
44987;SDS011;35735;52.226;21.254;2023-05-16T10:38:39;5.60;;;2.37;;
44987;SDS011;35735;52.226;21.254;2023-05-16T10:43:43;2.60;;;2.12;;
44987;SDS011;35735;52.226;21.254;2023-05-16T10:48:44;2.87;;;1.80;;
44987;SDS011;35735;52.226;21.254;2023-05-16T10:53:45;3.37;;;1.50;;
44987;SDS011;35735;52.226;21.254;2023-05-16T10:58:46;5.03;;;1.80;;
44987;SDS011;35735;52.226;21.254;2023-05-16T11:09:42;2.75;;;1.95;;
44987;SDS011;35735;52.226;21.254;2023-05-16T11:24:39;2.37;;;1.80;;
44987;SDS011;35735;52.226;21.254;2023-05-16T11:35:05;2.30;;;1.50;;
44987;SDS011;35735;52.226;21.254;2023-05-16T11:40:10;1.87;;;1.77;;
44987;SDS011;35735;52.226;21.254;2023-05-16T11:45:18;2.80;;;1.60;;
44987;SDS011;35735;52.226;21.254;2023-05-16T11:50:21;2.47;;;1.52;;
44987;SDS011;35735;52.226;21.254;2023-05-16T11:55:26;2.30;;;1.65;;
44987;SDS011;35735;52.226;21.254;2023-05-16T12:00:28;4.57;;;1.62;;
44987;SDS011;35735;52.226;21.254;2023-05-16T12:05:29;3.70;;;1.70;;
44987;SDS011;35735;52.226;21.254;2023-05-16T12:10:30;2.22;;;1.60;;
44987;SDS011;35735;52.226;21.254;2023-05-16T12:15:30;3.90;;;1.90;;
44987;SDS011;35735;52.226;21.254;2023-05-16T12:20:32;2.25;;;1.48;;
44987;SDS011;35735;52.226;21.254;2023-05-16T12:25:33;2.95;;;1.70;;
44987;SDS011;35735;52.226;21.254;2023-05-16T12:30:34;3.20;;;1.80;;
44987;SDS011;35735;52.226;21.254;2023-05-16T12:35:36;3.35;;;1.90;;
44987;SDS011;35735;52.226;21.254;2023-05-16T12:40:41;2.20;;;1.77;;
44987;SDS011;35735;52.226;21.254;2023-05-16T12:45:53;1.85;;;1.65;;
44987;SDS011;35735;52.226;21.254;2023-05-16T12:50:55;1.85;;;1.65;;
44987;SDS011;35735;52.226;21.254;2023-05-16T12:55:56;3.12;;;2.00;;
44987;SDS011;35735;52.226;21.254;2023-05-16T13:00:56;3.70;;;1.80;;
44987;SDS011;35735;52.226;21.254;2023-05-16T13:05:57;3.47;;;2.03;;
44987;SDS011;35735;52.226;21.254;2023-05-16T13:10:58;3.83;;;1.92;;
44987;SDS011;35735;52.226;21.254;2023-05-16T13:16:01;2.87;;;2.50;;
44987;SDS011;35735;52.226;21.254;2023-05-16T13:21:02;3.65;;;2.17;;
44987;SDS011;35735;52.226;21.254;2023-05-16T13:26:02;2.70;;;1.77;;
44987;SDS011;35735;52.226;21.254;2023-05-16T13:31:03;3.80;;;1.80;;
44987;SDS011;35735;52.226;21.254;2023-05-16T13:36:04;2.17;;;1.67;;
44987;SDS011;35735;52.226;21.254;2023-05-16T13:41:04;7.78;;;2.10;;
44987;SDS011;35735;52.226;21.254;2023-05-16T13:46:05;2.92;;;2.10;;
44987;SDS011;35735;52.226;21.254;2023-05-16T13:51:06;3.40;;;1.90;;
44987;SDS011;35735;52.226;21.254;2023-05-16T13:56:06;3.97;;;2.08;;
44987;SDS011;35735;52.226;21.254;2023-05-16T14:01:07;2.22;;;2.03;;
44987;SDS011;35735;52.226;21.254;2023-05-16T14:06:07;2.50;;;2.10;;
44987;SDS011;35735;52.226;21.254;2023-05-16T14:11:08;4.80;;;1.98;;
44987;SDS011;35735;52.226;21.254;2023-05-16T14:16:09;2.40;;;1.73;;
44987;SDS011;35735;52.226;21.254;2023-05-16T14:21:09;2.85;;;2.08;;
44987;SDS011;35735;52.226;21.254;2023-05-16T14:26:10;2.17;;;1.90;;
44987;SDS011;35735;52.226;21.254;2023-05-16T14:31:10;3.33;;;2.25;;
44987;SDS011;35735;52.226;21.254;2023-05-16T14:36:12;2.30;;;2.10;;
44987;SDS011;35735;52.226;21.254;2023-05-16T14:41:13;2.45;;;1.80;;
44987;SDS011;35735;52.226;21.254;2023-05-16T14:46:14;2.22;;;1.98;;
44987;SDS011;35735;52.226;21.254;2023-05-16T14:51:14;4.93;;;2.47;;
44987;SDS011;35735;52.226;21.254;2023-05-16T14:56:15;3.25;;;2.05;;
44987;SDS011;35735;52.226;21.254;2023-05-16T15:01:15;3.65;;;1.98;;
44987;SDS011;35735;52.226;21.254;2023-05-16T15:06:16;2.00;;;1.80;;
44987;SDS011;35735;52.226;21.254;2023-05-16T15:11:16;2.92;;;1.75;;
44987;SDS011;35735;52.226;21.254;2023-05-16T15:16:17;2.62;;;1.80;;
44987;SDS011;35735;52.226;21.254;2023-05-16T15:21:17;4.90;;;2.15;;
44987;SDS011;35735;52.226;21.254;2023-05-16T15:26:18;2.60;;;2.10;;
44987;SDS011;35735;52.226;21.254;2023-05-16T15:31:18;16.58;;;7.18;;
44987;SDS011;35735;52.226;21.254;2023-05-16T15:36:19;3.67;;;2.08;;
44987;SDS011;35735;52.226;21.254;2023-05-16T15:41:20;2.25;;;1.80;;
44987;SDS011;35735;52.226;21.254;2023-05-16T15:46:20;2.75;;;2.08;;
44987;SDS011;35735;52.226;21.254;2023-05-16T15:51:21;9.38;;;2.50;;
44987;SDS011;35735;52.226;21.254;2023-05-16T15:56:21;4.85;;;2.30;;
44987;SDS011;35735;52.226;21.254;2023-05-16T16:01:22;3.55;;;1.83;;
44987;SDS011;35735;52.226;21.254;2023-05-16T16:06:22;4.00;;;1.70;;
44987;SDS011;35735;52.226;21.254;2023-05-16T16:11:25;4.97;;;1.70;;
44987;SDS011;35735;52.226;21.254;2023-05-16T16:16:26;3.45;;;1.73;;
44987;SDS011;35735;52.226;21.254;2023-05-16T16:21:26;1.70;;;1.60;;
44987;SDS011;35735;52.226;21.254;2023-05-16T16:26:27;4.75;;;2.00;;
44987;SDS011;35735;52.226;21.254;2023-05-16T16:31:27;2.03;;;1.80;;
44987;SDS011;35735;52.226;21.254;2023-05-16T16:36:28;1.70;;;1.60;;
44987;SDS011;35735;52.226;21.254;2023-05-16T16:41:28;2.75;;;1.90;;
44987;SDS011;35735;52.226;21.254;2023-05-16T16:46:29;1.67;;;1.58;;
44987;SDS011;35735;52.226;21.254;2023-05-16T16:51:29;2.10;;;1.90;;
44987;SDS011;35735;52.226;21.254;2023-05-16T16:56:32;3.87;;;3.33;;
44987;SDS011;35735;52.226;21.254;2023-05-16T17:01:33;5.82;;;3.58;;
44987;SDS011;35735;52.226;21.254;2023-05-16T17:06:33;2.50;;;2.03;;
44987;SDS011;35735;52.226;21.254;2023-05-16T17:11:34;7.45;;;2.50;;
44987;SDS011;35735;52.226;21.254;2023-05-16T17:16:35;2.97;;;2.10;;
44987;SDS011;35735;52.226;21.254;2023-05-16T17:21:39;4.93;;;3.47;;
44987;SDS011;35735;52.226;21.254;2023-05-16T17:26:39;8.60;;;2.90;;
44987;SDS011;35735;52.226;21.254;2023-05-16T17:31:40;3.60;;;2.17;;
44987;SDS011;35735;52.226;21.254;2023-05-16T17:36:40;4.55;;;3.40;;
44987;SDS011;35735;52.226;21.254;2023-05-16T17:41:41;6.70;;;5.20;;
44987;SDS011;35735;52.226;21.254;2023-05-16T17:46:42;8.05;;;6.90;;
44987;SDS011;35735;52.226;21.254;2023-05-16T17:51:49;10.25;;;7.07;;
44987;SDS011;35735;52.226;21.254;2023-05-16T17:56:51;17.60;;;6.72;;
44987;SDS011;35735;52.226;21.254;2023-05-16T18:01:52;14.00;;;6.22;;
44987;SDS011;35735;52.226;21.254;2023-05-16T18:06:55;6.65;;;4.32;;
44987;SDS011;35735;52.226;21.254;2023-05-16T18:11:55;8.20;;;4.20;;
44987;SDS011;35735;52.226;21.254;2023-05-16T18:16:56;22.50;;;6.37;;
44987;SDS011;35735;52.226;21.254;2023-05-16T18:21:56;43.87;;;10.82;;
44987;SDS011;35735;52.226;21.254;2023-05-16T18:26:58;53.42;;;14.40;;
44987;SDS011;35735;52.226;21.254;2023-05-16T18:32:00;23.83;;;9.40;;
44987;SDS011;35735;52.226;21.254;2023-05-16T18:37:01;31.67;;;11.05;;
44987;SDS011;35735;52.226;21.254;2023-05-16T18:42:01;10.52;;;4.70;;
44987;SDS011;35735;52.226;21.254;2023-05-16T18:47:02;10.13;;;3.85;;
44987;SDS011;35735;52.226;21.254;2023-05-16T18:52:06;12.65;;;5.32;;
44987;SDS011;35735;52.226;21.254;2023-05-16T18:57:08;25.67;;;8.50;;
44987;SDS011;35735;52.226;21.254;2023-05-16T19:02:08;17.92;;;9.13;;
44987;SDS011;35735;52.226;21.254;2023-05-16T19:07:09;16.37;;;9.50;;
44987;SDS011;35735;52.226;21.254;2023-05-16T19:12:10;19.80;;;13.90;;
44987;SDS011;35735;52.226;21.254;2023-05-16T19:17:10;18.90;;;13.27;;
44987;SDS011;35735;52.226;21.254;2023-05-16T19:22:11;19.25;;;16.08;;
44987;SDS011;35735;52.226;21.254;2023-05-16T19:27:11;19.35;;;14.07;;
44987;SDS011;35735;52.226;21.254;2023-05-16T19:32:12;24.25;;;15.88;;
44987;SDS011;35735;52.226;21.254;2023-05-16T19:37:12;23.40;;;15.27;;
44987;SDS011;35735;52.226;21.254;2023-05-16T19:42:13;17.65;;;14.15;;
44987;SDS011;35735;52.226;21.254;2023-05-16T19:47:13;15.55;;;12.27;;
44987;SDS011;35735;52.226;21.254;2023-05-16T19:52:14;13.80;;;9.85;;
44987;SDS011;35735;52.226;21.254;2023-05-16T19:57:14;11.00;;;8.80;;
44987;SDS011;35735;52.226;21.254;2023-05-16T20:02:15;11.80;;;8.63;;
44987;SDS011;35735;52.226;21.254;2023-05-16T20:07:16;11.27;;;7.62;;
44987;SDS011;35735;52.226;21.254;2023-05-16T20:12:16;9.80;;;6.80;;
44987;SDS011;35735;52.226;21.254;2023-05-16T20:17:17;12.07;;;8.02;;
44987;SDS011;35735;52.226;21.254;2023-05-16T20:22:17;19.15;;;8.70;;
44987;SDS011;35735;52.226;21.254;2023-05-16T20:27:18;30.05;;;23.25;;
44987;SDS011;35735;52.226;21.254;2023-05-16T20:32:19;23.15;;;16.67;;
44987;SDS011;35735;52.226;21.254;2023-05-16T20:37:20;31.55;;;19.05;;
44987;SDS011;35735;52.226;21.254;2023-05-16T20:42:20;21.00;;;15.75;;
44987;SDS011;35735;52.226;21.254;2023-05-16T20:47:21;17.33;;;15.40;;
44987;SDS011;35735;52.226;21.254;2023-05-16T20:52:21;23.48;;;19.40;;
44987;SDS011;35735;52.226;21.254;2023-05-16T20:57:22;18.00;;;14.02;;
44987;SDS011;35735;52.226;21.254;2023-05-16T21:02:23;19.55;;;10.30;;
44987;SDS011;35735;52.226;21.254;2023-05-16T21:07:23;9.98;;;8.80;;
44987;SDS011;35735;52.226;21.254;2023-05-16T21:12:24;15.15;;;8.77;;
44987;SDS011;35735;52.226;21.254;2023-05-16T21:17:24;12.40;;;8.80;;
44987;SDS011;35735;52.226;21.254;2023-05-16T21:22:25;18.10;;;9.80;;
44987;SDS011;35735;52.226;21.254;2023-05-16T21:27:26;13.13;;;8.95;;
44987;SDS011;35735;52.226;21.254;2023-05-16T21:32:26;11.20;;;8.52;;
44987;SDS011;35735;52.226;21.254;2023-05-16T21:37:27;12.50;;;8.98;;
44987;SDS011;35735;52.226;21.254;2023-05-16T21:42:27;13.25;;;8.63;;
44987;SDS011;35735;52.226;21.254;2023-05-16T21:47:28;11.35;;;8.40;;
44987;SDS011;35735;52.226;21.254;2023-05-16T21:52:29;11.68;;;9.00;;
44987;SDS011;35735;52.226;21.254;2023-05-16T21:57:29;10.95;;;9.48;;
44987;SDS011;35735;52.226;21.254;2023-05-16T22:02:30;11.05;;;9.10;;
44987;SDS011;35735;52.226;21.254;2023-05-16T22:07:31;10.27;;;9.15;;
44987;SDS011;35735;52.226;21.254;2023-05-16T22:12:31;11.70;;;8.85;;
44987;SDS011;35735;52.226;21.254;2023-05-16T22:17:32;13.77;;;9.82;;
44987;SDS011;35735;52.226;21.254;2023-05-16T22:22:32;12.60;;;9.48;;
44987;SDS011;35735;52.226;21.254;2023-05-16T22:27:33;13.05;;;10.07;;
44987;SDS011;35735;52.226;21.254;2023-05-16T22:32:34;12.95;;;9.32;;
44987;SDS011;35735;52.226;21.254;2023-05-16T22:37:34;10.80;;;9.15;;
44987;SDS011;35735;52.226;21.254;2023-05-16T22:42:35;11.75;;;8.52;;
44987;SDS011;35735;52.226;21.254;2023-05-16T22:47:35;10.77;;;9.18;;
44987;SDS011;35735;52.226;21.254;2023-05-16T22:52:36;11.85;;;9.05;;
44987;SDS011;35735;52.226;21.254;2023-05-16T22:57:36;11.35;;;8.95;;
44987;SDS011;35735;52.226;21.254;2023-05-16T23:02:37;10.55;;;8.80;;
44987;SDS011;35735;52.226;21.254;2023-05-16T23:07:37;11.70;;;9.25;;
44987;SDS011;35735;52.226;21.254;2023-05-16T23:12:38;11.32;;;8.95;;
44987;SDS011;35735;52.226;21.254;2023-05-16T23:17:39;11.12;;;8.80;;
44987;SDS011;35735;52.226;21.254;2023-05-16T23:22:39;11.95;;;9.60;;
44987;SDS011;35735;52.226;21.254;2023-05-16T23:27:40;13.43;;;10.57;;
44987;SDS011;35735;52.226;21.254;2023-05-16T23:32:40;16.73;;;10.02;;
44987;SDS011;35735;52.226;21.254;2023-05-16T23:37:41;14.30;;;11.30;;
44987;SDS011;35735;52.226;21.254;2023-05-16T23:42:41;15.40;;;10.65;;
44987;SDS011;35735;52.226;21.254;2023-05-16T23:47:42;12.37;;;10.77;;
44987;SDS011;35735;52.226;21.254;2023-05-16T23:52:42;12.07;;;10.68;;
44987;SDS011;35735;52.226;21.254;2023-05-16T23:57:43;12.65;;;11.20;;
